createdAt,value
2023-03-12T00:03:14.962Z,2.92
2023-03-12T00:06:11.296Z,2.87
2023-03-12T00:08:59.252Z,2.93
2023-03-12T00:11:47.548Z,3.04
2023-03-12T00:14:34.411Z,3.14
2023-03-12T00:17:20.978Z,3.12
2023-03-12T00:20:08.493Z,3.19
2023-03-12T00:22:55.088Z,3.20
2023-03-12T00:25:41.802Z,3.33
2023-03-12T00:28:30.541Z,3.21
2023-03-12T00:31:19.754Z,3.35
2023-03-12T00:34:06.228Z,3.40
2023-03-12T00:36:52.939Z,3.33
2023-03-12T00:39:39.573Z,3.35
2023-03-12T00:42:26.527Z,3.47
2023-03-12T00:45:14.456Z,3.42
2023-03-12T00:48:01.138Z,3.56
2023-03-12T00:50:48.057Z,3.58
2023-03-12T00:53:35.031Z,3.34
2023-03-12T00:56:21.597Z,3.52
2023-03-12T00:59:08.613Z,3.52
2023-03-12T01:01:56.689Z,3.46
2023-03-12T01:04:43.540Z,3.39
2023-03-12T01:07:30.389Z,3.39
2023-03-12T01:10:21.777Z,3.52
2023-03-12T01:13:08.618Z,3.53
2023-03-12T01:15:55.484Z,3.57
2023-03-12T01:18:43.645Z,3.61
2023-03-12T01:21:31.615Z,3.50
2023-03-12T01:24:18.194Z,3.45
2023-03-12T01:27:04.910Z,3.34
2023-03-12T01:29:51.417Z,3.44
2023-03-12T01:32:38.349Z,3.33
2023-03-12T01:35:27.058Z,3.43
2023-03-12T01:38:16.328Z,3.37
2023-03-12T01:41:03.169Z,3.33
2023-03-12T01:43:50.931Z,3.56
2023-03-12T01:46:39.535Z,3.59
2023-03-12T01:49:33.086Z,3.73
2023-03-12T01:52:24.535Z,3.57
2023-03-12T01:55:15.703Z,3.46
2023-03-12T01:58:04.837Z,3.39
2023-03-12T02:00:51.800Z,3.28
2023-03-12T02:03:38.782Z,3.22
2023-03-12T02:06:34.169Z,3.12
2023-03-12T02:09:23.268Z,3.13
2023-03-12T02:12:11.349Z,3.01
2023-03-12T02:14:58.254Z,2.99
2023-03-12T02:17:44.880Z,2.87
2023-03-12T02:20:37.787Z,2.75
2023-03-12T02:23:30.268Z,2.72
2023-03-12T02:26:21.738Z,2.75
2023-03-12T02:29:11.533Z,2.38
2023-03-12T02:32:00.619Z,2.28
2023-03-12T02:34:48.147Z,2.51
2023-03-12T02:37:35.218Z,2.39
2023-03-12T02:40:26.415Z,2.13
2023-03-12T02:43:15.687Z,2.32
2023-03-12T02:46:02.913Z,2.36
2023-03-12T02:48:49.963Z,2.44
2023-03-12T02:51:36.510Z,2.24
2023-03-12T02:54:24.059Z,2.37
2023-03-12T02:57:10.735Z,2.28
2023-03-12T02:59:59.782Z,2.16
2023-03-12T03:02:46.975Z,2.18
2023-03-12T03:05:33.705Z,2.12
2023-03-12T03:08:20.543Z,2.05
2023-03-12T03:11:08.214Z,2.32
2023-03-12T03:13:56.090Z,2.12
2023-03-12T03:16:44.347Z,1.96
2023-03-12T03:19:31.268Z,2.06
2023-03-12T03:22:18.162Z,1.97
2023-03-12T03:25:04.999Z,2.04
2023-03-12T03:27:51.766Z,1.96
2023-03-12T03:30:38.685Z,2.13
2023-03-12T03:33:28.689Z,2.11
2023-03-12T03:36:16.095Z,1.86
2023-03-12T03:39:10.909Z,2.03
2023-03-12T03:41:57.768Z,2.12
2023-03-12T03:44:46.732Z,1.94
2023-03-12T03:47:33.610Z,1.88
2023-03-12T03:50:21.840Z,2.05
2023-03-12T03:53:10.359Z,1.90
2023-03-12T03:55:57.194Z,2.11
2023-03-12T03:58:44.597Z,2.09
2023-03-12T04:01:32.380Z,1.99
2023-03-12T04:04:20.995Z,1.87
2023-03-12T04:07:09.104Z,1.73
2023-03-12T04:09:56.306Z,1.82
2023-03-12T04:12:42.981Z,1.92
2023-03-12T04:15:29.721Z,1.82
2023-03-12T04:18:17.339Z,1.89
2023-03-12T04:21:04.760Z,1.76
2023-03-12T04:23:52.793Z,1.74
2023-03-12T04:26:43.450Z,1.68
2023-03-12T04:29:30.911Z,1.55
2023-03-12T04:32:17.726Z,1.48
2023-03-12T04:35:04.502Z,1.69
2023-03-12T04:37:51.626Z,1.69
2023-03-12T04:40:40.026Z,1.58
2023-03-12T04:43:27.004Z,1.55
2023-03-12T04:46:14.013Z,1.59
2023-03-12T04:49:03.696Z,1.52
2023-03-12T04:51:52.496Z,1.80
2023-03-12T04:54:40.324Z,1.57
2023-03-12T04:57:28.820Z,1.74
2023-03-12T05:00:16.493Z,1.61
2023-03-12T05:03:03.727Z,1.61
2023-03-12T05:05:51.045Z,1.50
2023-03-12T05:08:37.868Z,1.41
2023-03-12T05:11:24.451Z,1.27
2023-03-12T05:14:13.438Z,1.48
2023-03-12T05:17:01.854Z,1.44
2023-03-12T05:19:48.820Z,1.45
2023-03-12T05:22:35.630Z,1.43
2023-03-12T05:25:22.460Z,1.45
2023-03-12T05:28:09.304Z,1.58
2023-03-12T05:31:00.926Z,1.35
2023-03-12T05:33:51.650Z,1.36
2023-03-12T05:36:39.617Z,1.19
2023-03-12T05:39:27.550Z,1.35
2023-03-12T05:42:18.383Z,1.27
2023-03-12T05:45:07.031Z,1.23
2023-03-12T05:47:56.749Z,1.18
2023-03-12T05:50:44.045Z,1.40
2023-03-12T05:53:31.251Z,1.51
2023-03-12T05:56:19.730Z,1.56
2023-03-12T05:59:07.662Z,1.27
2023-03-12T06:01:54.194Z,1.53
2023-03-12T06:04:42.365Z,1.71
2023-03-12T06:07:29.350Z,1.63
2023-03-12T06:10:16.113Z,1.72
2023-03-12T06:13:05.200Z,1.75
2023-03-12T06:15:52.286Z,1.82
2023-03-12T06:18:39.493Z,1.78
2023-03-12T06:21:29.470Z,1.99
2023-03-12T06:24:16.208Z,1.95
2023-03-12T06:27:09.461Z,2.09
2023-03-12T06:29:56.042Z,2.26
2023-03-12T06:32:42.907Z,2.42
2023-03-12T06:35:29.638Z,2.62
2023-03-12T06:38:17.915Z,2.73
2023-03-12T06:41:07.980Z,3.20
2023-03-12T06:43:54.514Z,2.84
2023-03-12T06:46:42.761Z,2.93
2023-03-12T06:49:32.323Z,3.26
2023-03-12T06:52:19.210Z,3.52
2023-03-12T06:55:08.266Z,3.82
2023-03-12T06:57:54.960Z,3.90
2023-03-12T07:00:41.649Z,3.84
2023-03-12T07:03:28.574Z,3.82
2023-03-12T07:06:16.257Z,3.78
2023-03-12T07:09:02.792Z,3.84
2023-03-12T07:11:51.027Z,3.97
2023-03-12T07:14:37.864Z,3.90
2023-03-12T07:17:24.707Z,3.90
2023-03-12T07:20:13.214Z,3.89
2023-03-12T07:23:00.414Z,3.90
2023-03-12T07:25:48.009Z,4.31
2023-03-12T07:28:36.213Z,4.41
2023-03-12T07:31:23.159Z,4.54
2023-03-12T07:34:10.098Z,4.56
2023-03-12T07:36:56.720Z,4.31
2023-03-12T07:39:43.966Z,4.45
2023-03-12T07:42:30.483Z,4.48
2023-03-12T07:45:19.672Z,4.39
2023-03-12T07:48:06.958Z,4.46
2023-03-12T07:50:53.446Z,4.69
2023-03-12T07:53:40.182Z,4.55
2023-03-12T07:56:27.074Z,4.84
2023-03-12T07:59:14.025Z,5.04
2023-03-12T08:02:02.450Z,5.60
2023-03-12T08:04:49.342Z,5.78
2023-03-12T08:07:37.204Z,6.01
2023-03-12T08:10:24.431Z,6.48
2023-03-12T08:13:10.899Z,7.35
2023-03-12T08:15:58.014Z,8.76
2023-03-12T08:18:45.938Z,9.78
2023-03-12T08:21:32.754Z,10.74
2023-03-12T08:24:19.463Z,11.15
2023-03-12T08:27:06.285Z,10.69
2023-03-12T08:29:53.141Z,9.92
2023-03-12T08:32:40.370Z,8.43
2023-03-12T08:35:28.771Z,7.85
2023-03-12T08:38:15.413Z,7.12
2023-03-12T08:41:02.852Z,6.73
2023-03-12T08:43:49.657Z,7.02
2023-03-12T08:46:36.538Z,6.36
2023-03-12T08:49:24.225Z,6.92
2023-03-12T08:52:12.310Z,7.31
2023-03-12T08:54:59.132Z,7.32
2023-03-12T08:57:46.041Z,7.14
2023-03-12T09:00:32.763Z,7.56
2023-03-12T09:03:21.643Z,7.80
2023-03-12T09:06:13.402Z,7.63
2023-03-12T09:09:05.115Z,8.06
2023-03-12T09:11:51.839Z,7.95
2023-03-12T09:17:44.987Z,8.27
2023-03-12T09:20:32.339Z,7.86
2023-03-12T09:23:19.429Z,7.74
2023-03-12T09:26:10.795Z,7.80
2023-03-12T09:28:58.058Z,7.85
2023-03-12T09:31:44.495Z,7.93
2023-03-12T09:34:31.128Z,8.07
2023-03-12T09:37:17.865Z,7.30
2023-03-12T09:40:07.816Z,7.52
2023-03-12T09:42:59.736Z,7.55
2023-03-12T09:45:48.555Z,7.52
2023-03-12T09:48:37.264Z,7.29
2023-03-12T09:51:29.554Z,7.72
2023-03-12T09:54:24.750Z,7.62
2023-03-12T09:57:15.008Z,7.90
2023-03-12T10:00:07.353Z,7.93
2023-03-12T10:03:12.224Z,7.80
2023-03-12T10:06:09.892Z,8.13
2023-03-12T10:09:07.900Z,8.27
2023-03-12T10:12:05.225Z,7.95
2023-03-12T10:15:04.105Z,8.37
2023-03-12T10:18:06.458Z,8.22
2023-03-12T10:21:03.651Z,8.38
2023-03-12T10:24:06.518Z,8.07
2023-03-12T10:26:56.439Z,8.03
2023-03-12T10:29:47.043Z,8.20
2023-03-12T10:32:42.298Z,7.87
2023-03-12T10:35:32.845Z,7.83
2023-03-12T10:38:28.888Z,7.69
2023-03-12T10:41:18.883Z,8.06
2023-03-12T10:44:10.123Z,8.37
2023-03-12T10:47:12.533Z,8.37
2023-03-12T10:50:15.163Z,8.52
2023-03-12T10:53:22.823Z,8.72
2023-03-12T10:56:11.678Z,9.18
2023-03-12T10:59:00.351Z,9.17
2023-03-12T11:01:50.307Z,9.09
2023-03-12T11:04:39.191Z,8.90
2023-03-12T11:07:29.348Z,8.91
2023-03-12T11:10:23.900Z,8.70
2023-03-12T11:13:26.402Z,8.83
2023-03-12T11:16:30.776Z,9.00
2023-03-12T11:19:29.731Z,8.71
2023-03-12T11:22:29.470Z,8.61
2023-03-12T11:25:23.956Z,8.33
2023-03-12T11:28:19.254Z,8.58
2023-03-12T11:31:10.413Z,8.59
2023-03-12T11:34:04.635Z,8.62
2023-03-12T11:36:57.992Z,8.84
2023-03-12T11:39:59.712Z,9.11
2023-03-12T11:43:06.170Z,9.01
2023-03-12T11:46:09.323Z,9.07
2023-03-12T11:49:08.765Z,9.11
2023-03-12T11:52:04.026Z,9.20
2023-03-12T11:55:16.341Z,9.46
2023-03-12T11:58:21.952Z,9.25
2023-03-12T12:01:14.333Z,8.95
2023-03-12T12:04:35.232Z,8.99
2023-03-12T12:07:35.601Z,9.13
2023-03-12T12:10:29.771Z,9.22
2023-03-12T12:13:25.057Z,9.29
2023-03-12T12:16:29.110Z,9.26
2023-03-12T12:19:28.491Z,9.30
2023-03-12T12:22:35.952Z,9.23
2023-03-12T12:25:35.474Z,9.31
2023-03-12T12:29:06.824Z,9.58
2023-03-12T12:31:56.898Z,9.46
2023-03-12T12:35:06.079Z,9.30
2023-03-12T12:37:57.860Z,9.04
2023-03-12T12:40:49.056Z,9.04
2023-03-12T12:43:39.317Z,9.36
2023-03-12T12:46:32.227Z,9.33
2023-03-12T12:49:23.732Z,9.62
2023-03-12T12:52:13.905Z,9.71
2023-03-12T12:55:07.862Z,9.79
2023-03-12T12:58:00.668Z,9.59
2023-03-12T13:00:51.292Z,9.11
2023-03-12T13:03:40.064Z,9.52
2023-03-12T13:06:29.974Z,9.40
2023-03-12T13:09:17.816Z,9.41
2023-03-12T13:12:26.372Z,9.39
2023-03-12T13:15:40.017Z,9.24
2023-03-12T13:18:30.330Z,9.27
2023-03-12T13:21:25.959Z,9.19
2023-03-12T13:24:20.626Z,8.97
2023-03-12T13:27:16.476Z,9.37
2023-03-12T13:30:44.861Z,9.59
2023-03-12T13:33:45.094Z,9.47
2023-03-12T13:36:37.169Z,9.57
2023-03-12T13:39:32.138Z,9.19
2023-03-12T13:42:40.018Z,9.41
2023-03-12T13:45:31.135Z,9.53
2023-03-12T13:48:20.210Z,9.53
2023-03-12T13:51:16.925Z,9.56
2023-03-12T13:54:05.912Z,9.13
2023-03-12T13:56:58.852Z,9.25
2023-03-12T13:59:47.283Z,9.11
2023-03-12T14:02:37.928Z,9.09
2023-03-12T14:05:24.611Z,9.05
2023-03-12T14:08:30.946Z,8.80
2023-03-12T14:11:38.177Z,8.91
2023-03-12T14:14:41.547Z,9.04
2023-03-12T14:17:30.390Z,8.99
2023-03-12T14:20:20.313Z,8.94
2023-03-12T14:23:10.278Z,9.04
2023-03-12T14:26:00.139Z,8.97
2023-03-12T14:28:55.959Z,8.47
2023-03-12T14:31:43.499Z,8.93
2023-03-12T14:34:34.739Z,8.85
2023-03-12T14:37:24.989Z,8.88
2023-03-12T14:40:23.399Z,8.88
2023-03-12T14:43:25.416Z,8.88
2023-03-12T14:46:18.767Z,9.02
2023-03-12T14:49:05.584Z,8.81
2023-03-12T14:51:52.195Z,8.75
2023-03-12T14:54:40.246Z,8.66
2023-03-12T14:57:27.573Z,8.30
2023-03-12T15:00:24.832Z,8.06
2023-03-12T15:03:17.090Z,8.01
2023-03-12T15:06:03.858Z,8.17
2023-03-12T15:08:51.067Z,7.80
2023-03-12T15:11:38.830Z,7.75
2023-03-12T15:14:27.965Z,7.86
2023-03-12T15:17:18.572Z,7.83
2023-03-12T15:20:09.667Z,7.66
2023-03-12T15:22:57.303Z,7.71
2023-03-12T15:25:44.918Z,7.75
2023-03-12T15:28:31.501Z,7.69
2023-03-12T15:31:18.711Z,7.71
2023-03-12T15:34:07.775Z,7.60
2023-03-12T15:36:55.972Z,7.56
2023-03-12T15:39:48.560Z,7.61
2023-03-12T15:42:41.259Z,7.53
2023-03-12T15:45:36.320Z,7.32
2023-03-12T15:48:27.620Z,7.26
2023-03-12T15:51:17.446Z,7.45
2023-03-12T15:54:07.762Z,7.40
2023-03-12T15:56:54.394Z,7.48
2023-03-12T15:59:41.277Z,7.41
2023-03-12T16:02:38.506Z,6.96
2023-03-12T16:05:28.651Z,6.82
2023-03-12T16:08:17.527Z,6.72
2023-03-12T16:11:07.387Z,6.72
2023-03-12T16:14:00.576Z,6.92
2023-03-12T16:16:47.886Z,6.91
2023-03-12T16:19:34.862Z,7.11
2023-03-12T16:22:22.596Z,7.10
2023-03-12T16:25:12.017Z,7.01
2023-03-12T16:28:03.391Z,6.90
2023-03-12T16:30:51.638Z,6.72
2023-03-12T16:33:38.392Z,6.41
2023-03-12T16:36:25.321Z,6.49
2023-03-12T16:39:12.328Z,6.55
2023-03-12T16:41:58.946Z,6.67
2023-03-12T16:44:47.938Z,6.57
2023-03-12T16:47:34.679Z,6.18
2023-03-12T16:50:23.662Z,6.01
2023-03-12T16:53:12.732Z,6.29
2023-03-12T16:56:02.073Z,6.14
2023-03-12T16:58:49.718Z,6.28
2023-03-12T17:01:38.244Z,6.09
2023-03-12T17:04:24.715Z,6.25
2023-03-12T17:07:11.463Z,6.23
2023-03-12T17:09:59.734Z,6.16
2023-03-12T17:12:48.335Z,6.22
2023-03-12T17:15:35.343Z,6.30
2023-03-12T17:18:23.714Z,6.39
2023-03-12T17:21:13.406Z,6.38
2023-03-12T17:24:00.237Z,6.41
2023-03-12T17:26:47.784Z,6.43
2023-03-12T17:29:34.439Z,6.30
2023-03-12T17:32:21.545Z,6.33
2023-03-12T17:35:10.356Z,6.13
2023-03-12T17:37:57.045Z,6.19
2023-03-12T17:40:44.797Z,6.37
2023-03-12T17:43:32.494Z,6.18
2023-03-12T17:46:19.189Z,6.28
2023-03-12T17:49:06.026Z,6.41
2023-03-12T17:51:54.023Z,6.37
2023-03-12T17:54:40.841Z,6.27
2023-03-12T17:57:27.803Z,6.06
2023-03-12T18:00:15.395Z,6.09
2023-03-12T18:03:03.577Z,6.06
2023-03-12T18:05:51.058Z,6.03
2023-03-12T18:08:39.033Z,6.06
2023-03-12T18:11:25.654Z,5.93
2023-03-12T18:14:12.465Z,6.09
2023-03-12T18:16:59.504Z,5.96
2023-03-12T18:19:46.188Z,6.14
2023-03-12T18:22:32.899Z,6.05
2023-03-12T18:25:21.054Z,5.97
2023-03-12T18:28:07.851Z,5.93
2023-03-12T18:30:55.038Z,5.90
2023-03-12T18:33:41.979Z,5.86
2023-03-12T18:36:28.745Z,5.78
2023-03-12T18:39:15.823Z,5.77
2023-03-12T18:42:03.687Z,5.80
2023-03-12T18:44:51.182Z,5.80
2023-03-12T18:47:39.531Z,5.76
2023-03-12T18:50:26.339Z,5.67
2023-03-12T18:53:13.099Z,5.76
2023-03-12T18:56:01.252Z,5.35
2023-03-12T18:58:49.275Z,5.67
2023-03-12T19:01:36.153Z,5.65
2023-03-12T19:04:22.817Z,5.68
2023-03-12T19:07:10.783Z,5.71
2023-03-12T19:09:57.450Z,5.77
2023-03-12T19:12:53.608Z,5.56
2023-03-12T19:15:41.810Z,5.73
2023-03-12T19:18:29.147Z,5.46
2023-03-12T19:21:16.199Z,5.50
2023-03-12T19:24:03.121Z,5.59
2023-03-12T19:26:49.832Z,5.74
2023-03-12T19:29:36.698Z,5.69
2023-03-12T19:32:27.772Z,5.53
2023-03-12T19:35:19.956Z,5.67
2023-03-12T19:38:06.887Z,5.72
2023-03-12T19:40:55.481Z,5.81
2023-03-12T19:43:42.370Z,5.68
2023-03-12T19:46:31.287Z,5.80
2023-03-12T19:49:19.552Z,5.81
2023-03-12T19:52:06.272Z,5.84
2023-03-12T19:55:03.902Z,5.95
2023-03-12T19:57:51.384Z,5.94
2023-03-12T20:00:38.188Z,5.95
2023-03-12T20:03:25.044Z,5.98
2023-03-12T20:06:13.828Z,5.94
2023-03-12T20:09:00.638Z,6.01
2023-03-12T20:11:47.135Z,6.05
2023-03-12T20:14:34.191Z,6.07
2023-03-12T20:17:21.078Z,6.15
2023-03-12T20:20:09.272Z,6.09
2023-03-12T20:22:57.089Z,6.08
2023-03-12T20:25:44.299Z,6.19
2023-03-12T20:28:30.758Z,6.24
2023-03-12T20:31:18.409Z,6.10
2023-03-12T20:34:05.209Z,6.00
2023-03-12T20:36:51.865Z,6.13
2023-03-12T20:39:39.884Z,6.18
2023-03-12T20:42:26.721Z,6.15
2023-03-12T20:45:13.513Z,6.32
2023-03-12T20:48:00.340Z,6.30
2023-03-12T20:50:50.100Z,6.30
2023-03-12T20:53:37.058Z,6.34
2023-03-12T20:56:25.134Z,6.34
2023-03-12T20:59:11.962Z,6.46
2023-03-12T21:01:58.753Z,6.33
2023-03-12T21:04:45.627Z,6.41
2023-03-12T21:07:32.083Z,6.60
2023-03-12T21:10:19.227Z,6.70
2023-03-12T21:13:07.055Z,6.76
2023-03-12T21:15:54.046Z,6.75
2023-03-12T21:18:40.697Z,6.74
2023-03-12T21:21:27.690Z,6.81
2023-03-12T21:24:14.409Z,6.79
2023-03-12T21:27:01.294Z,6.75
2023-03-12T21:29:49.481Z,6.90
2023-03-12T21:32:36.258Z,6.89
2023-03-12T21:35:23.670Z,6.68
2023-03-12T21:38:10.511Z,6.88
2023-03-12T21:40:59.210Z,6.89
2023-03-12T21:43:46.915Z,6.99
2023-03-12T21:46:35.996Z,7.10
2023-03-12T21:49:22.802Z,7.12
2023-03-12T21:52:09.440Z,7.11
2023-03-12T21:54:56.279Z,7.13
2023-03-12T21:57:43.163Z,7.25
2023-03-12T22:00:29.877Z,7.36
2023-03-12T22:03:18.054Z,7.39
2023-03-12T22:06:05.700Z,7.42
2023-03-12T22:08:52.436Z,7.52
2023-03-12T22:11:39.049Z,7.40
2023-03-12T22:14:26.053Z,7.54
2023-03-12T22:17:12.723Z,7.42
2023-03-12T22:20:00.983Z,7.54
2023-03-12T22:22:47.588Z,7.67
2023-03-12T22:25:36.491Z,7.67
2023-03-12T22:28:25.694Z,7.71
2023-03-12T22:31:12.417Z,7.81
2023-03-12T22:33:59.224Z,7.98
2023-03-12T22:36:47.566Z,7.85
2023-03-12T22:39:34.387Z,7.78
2023-03-12T22:42:21.159Z,7.89
2023-03-12T22:45:09.673Z,7.95
2023-03-12T22:47:56.393Z,8.09
2023-03-12T22:50:43.159Z,7.85
2023-03-12T22:53:32.574Z,7.95
2023-03-12T22:56:19.278Z,8.17
2023-03-12T22:59:05.796Z,8.20
2023-03-12T23:01:52.450Z,8.24
2023-03-12T23:04:39.294Z,8.09
2023-03-12T23:07:26.053Z,8.13
2023-03-12T23:10:14.365Z,8.21
2023-03-12T23:13:01.041Z,8.28
2023-03-12T23:15:48.635Z,8.11
2023-03-12T23:18:35.830Z,8.35
2023-03-12T23:21:24.529Z,8.42
2023-03-12T23:24:11.332Z,8.45
2023-03-12T23:26:59.598Z,8.33
2023-03-12T23:29:46.025Z,8.35
2023-03-12T23:32:32.926Z,8.47
2023-03-12T23:35:19.680Z,8.38
2023-03-12T23:38:06.977Z,8.37
2023-03-12T23:40:54.039Z,8.43
2023-03-12T23:43:42.369Z,8.43
2023-03-12T23:46:29.269Z,8.29
2023-03-12T23:49:15.968Z,8.48
2023-03-12T23:52:02.704Z,8.41
2023-03-12T23:54:49.306Z,8.37
2023-03-12T23:57:36.414Z,8.29
